Terminal Aerodrome Forecast
Issued by NWS

Home | Current Version | Previous Version | Text Only | Print | Product List | Glossary On
Versions: 1 2 3 4 5 6 7 8 9 10 11 12 13 14 15 16 17 18 19 20 21 22 23 24 25 26 27 28
000
FTAK31 PANC 181743
TAFAVD
TAF
PAVD 181743Z 1818/1918 VRB04KT P6SM -RA FEW001 BKN045 OVC070
     FM190000 VRB03KT P6SM VCSH SCT040 BKN070
     FM190900 VRB04KT P6SM -RA SCT025 OVC045
      AMD LTD TO CLD VIS AND WIND=

USA.gov is the U.S. government's official web portal to all federal, state and local government web resources and services.